createdAt,value
2018-06-21T00:00:09.663Z,8.23
2018-06-21T00:01:14.543Z,10.00
2018-06-21T00:02:19.187Z,9.20
2018-06-21T00:03:23.386Z,18.57
2018-06-21T00:04:27.741Z,7.77
2018-06-21T00:05:32.228Z,8.13
2018-06-21T00:06:36.462Z,7.20
2018-06-21T00:07:40.766Z,10.60
2018-06-21T00:08:44.978Z,13.77
2018-06-21T00:09:49.400Z,9.73
2018-06-21T00:10:53.683Z,10.80
2018-06-21T00:11:58.052Z,8.73
2018-06-21T00:13:02.324Z,12.03
2018-06-21T00:14:06.555Z,8.63
2018-06-21T00:15:10.784Z,8.20
2018-06-21T00:16:15.197Z,8.67
2018-06-21T00:17:19.387Z,9.83
2018-06-21T00:18:23.810Z,12.67
2018-06-21T00:19:28.271Z,7.83
2018-06-21T00:20:32.784Z,8.87
2018-06-21T00:21:36.334Z,10.40
2018-06-21T00:22:40.251Z,9.20
2018-06-21T00:23:44.516Z,9.93
2018-06-21T00:24:48.710Z,9.00
2018-06-21T00:25:53.091Z,11.30
2018-06-21T00:26:57.837Z,11.03
2018-06-21T00:28:02.212Z,11.25
2018-06-21T00:29:06.621Z,9.90
2018-06-21T00:30:11.159Z,6.90
2018-06-21T00:31:15.725Z,8.93
2018-06-21T00:32:19.942Z,9.60
2018-06-21T00:33:24.506Z,10.00
2018-06-21T00:34:29.167Z,10.63
2018-06-21T00:35:33.542Z,9.23
2018-06-21T00:36:38.036Z,7.75
2018-06-21T00:37:42.339Z,11.97
2018-06-21T00:38:46.638Z,11.97
2018-06-21T00:39:50.900Z,7.17
2018-06-21T00:40:55.161Z,14.67
2018-06-21T00:41:59.715Z,9.20
2018-06-21T00:43:04.214Z,10.05
2018-06-21T00:44:08.554Z,10.07
2018-06-21T00:45:13.074Z,10.97
2018-06-21T00:46:17.619Z,8.93
2018-06-21T00:47:22.060Z,12.73
2018-06-21T00:48:26.361Z,10.63
2018-06-21T00:49:30.544Z,10.20
2018-06-21T00:50:34.858Z,11.90
2018-06-21T00:51:39.163Z,12.18
2018-06-21T00:52:43.642Z,14.50
2018-06-21T00:53:47.914Z,16.50
2018-06-21T00:54:52.098Z,10.60
2018-06-21T00:56:17.935Z,10.10
2018-06-21T00:57:22.364Z,9.60
2018-06-21T00:58:26.526Z,12.90
2018-06-21T00:59:30.989Z,12.87
2018-06-21T01:00:36.194Z,8.68
2018-06-21T01:01:40.527Z,13.78
2018-06-21T01:02:45.349Z,13.50
2018-06-21T01:03:49.734Z,11.95
2018-06-21T01:04:53.988Z,10.13
2018-06-21T01:05:58.129Z,10.63
2018-06-21T01:07:02.439Z,8.70
2018-06-21T01:08:06.734Z,10.32
2018-06-21T01:09:10.952Z,10.70
2018-06-21T01:10:15.385Z,9.18
2018-06-21T01:11:20.082Z,8.38
2018-06-21T01:12:24.798Z,8.97
2018-06-21T01:13:29.102Z,9.00
2018-06-21T01:14:33.754Z,8.25
2018-06-21T01:15:38.367Z,10.20
2018-06-21T01:16:42.905Z,12.83
2018-06-21T01:17:47.290Z,8.73
2018-06-21T01:18:51.667Z,11.03
2018-06-21T01:19:55.860Z,9.28
2018-06-21T01:21:00.190Z,9.68
2018-06-21T01:22:04.417Z,10.23
2018-06-21T01:23:08.794Z,10.70
2018-06-21T01:24:13.032Z,15.20
2018-06-21T01:25:17.422Z,11.80
2018-06-21T01:26:21.957Z,13.18
2018-06-21T01:27:26.179Z,11.40
2018-06-21T01:28:30.407Z,12.07
2018-06-21T01:29:34.705Z,10.30
2018-06-21T01:30:39.218Z,15.30
2018-06-21T01:31:43.599Z,12.28
2018-06-21T01:32:48.010Z,12.88
2018-06-21T01:33:52.404Z,12.13
2018-06-21T01:34:56.994Z,15.40
2018-06-21T01:36:01.329Z,16.30
2018-06-21T01:37:05.883Z,20.32
2018-06-21T01:38:10.110Z,16.10
2018-06-21T01:39:14.555Z,19.15
2018-06-21T01:40:18.820Z,20.55
2018-06-21T01:41:23.099Z,17.20
2018-06-21T01:42:27.354Z,32.83
2018-06-21T01:43:31.777Z,20.48
2018-06-21T01:44:36.238Z,30.88
2018-06-21T01:45:40.580Z,21.02
2018-06-21T01:46:44.971Z,22.00
2018-06-21T01:47:49.256Z,23.20
2018-06-21T01:48:53.436Z,29.32
2018-06-21T01:49:57.692Z,23.10
2018-06-21T01:51:02.023Z,26.70
2018-06-21T01:52:06.760Z,24.67
2018-06-21T01:53:11.114Z,25.32
2018-06-21T01:54:15.342Z,32.50
2018-06-21T01:55:19.786Z,25.32
2018-06-21T01:56:24.418Z,22.62
2018-06-21T01:57:28.619Z,23.50
2018-06-21T01:58:32.771Z,27.37
2018-06-21T01:59:37.016Z,27.02
2018-06-21T02:00:41.337Z,20.97
2018-06-21T02:01:45.778Z,26.55
2018-06-21T02:02:50.738Z,28.35
2018-06-21T02:03:55.202Z,27.82
2018-06-21T02:04:59.434Z,25.50
2018-06-21T02:06:03.780Z,22.58
2018-06-21T02:07:08.555Z,26.37
2018-06-21T02:08:12.897Z,24.70
2018-06-21T02:09:17.102Z,35.50
2018-06-21T02:10:21.335Z,23.83
2018-06-21T02:11:25.733Z,29.30
2018-06-21T02:12:30.255Z,28.20
2018-06-21T02:13:34.531Z,31.02
2018-06-21T02:14:38.798Z,32.63
2018-06-21T02:15:43.141Z,24.05
2018-06-21T02:16:47.387Z,31.62
2018-06-21T02:17:51.616Z,25.40
2018-06-21T02:18:55.887Z,32.80
2018-06-21T02:20:00.111Z,31.68
2018-06-21T02:21:04.730Z,34.98
2018-06-21T02:22:09.203Z,39.58
2018-06-21T02:23:13.440Z,36.08
2018-06-21T02:24:17.810Z,34.67
2018-06-21T02:25:22.016Z,36.77
2018-06-21T02:26:26.291Z,29.57
2018-06-21T02:27:30.711Z,26.35
2018-06-21T02:28:34.899Z,27.25
2018-06-21T02:29:39.336Z,23.38
2018-06-21T02:30:43.730Z,16.65
2018-06-21T02:31:48.042Z,27.77
2018-06-21T02:32:52.289Z,19.25
2018-06-21T02:33:56.720Z,20.00
2018-06-21T02:35:00.927Z,24.18
2018-06-21T02:36:05.192Z,18.50
2018-06-21T02:37:09.381Z,16.73
2018-06-21T02:38:13.692Z,23.25
2018-06-21T02:39:18.285Z,17.40
2018-06-21T02:40:23.822Z,14.25
2018-06-21T02:41:28.093Z,18.70
2018-06-21T02:42:32.367Z,18.00
2018-06-21T02:43:36.633Z,20.70
2018-06-21T02:44:40.939Z,16.70
2018-06-21T02:45:45.181Z,15.95
2018-06-21T02:46:49.415Z,13.98
2018-06-21T02:47:53.620Z,13.50
2018-06-21T02:48:57.860Z,20.05
2018-06-21T02:50:02.464Z,16.35
2018-06-21T02:51:07.185Z,14.10
2018-06-21T02:52:11.558Z,13.80
2018-06-21T02:53:15.838Z,13.70
2018-06-21T02:54:20.388Z,17.77
2018-06-21T02:55:24.728Z,14.20
2018-06-21T02:56:29.354Z,14.30
2018-06-21T02:57:33.756Z,14.43
2018-06-21T02:58:38.196Z,17.60
2018-06-21T02:59:42.504Z,16.27
2018-06-21T03:00:46.786Z,13.58
2018-06-21T03:01:51.295Z,14.83
2018-06-21T03:02:56.247Z,11.08
2018-06-21T03:04:00.825Z,14.30
2018-06-21T03:05:05.030Z,12.43
2018-06-21T03:06:09.314Z,13.20
2018-06-21T03:07:13.863Z,14.73
2018-06-21T03:08:18.527Z,11.75
2018-06-21T03:09:22.775Z,13.08
2018-06-21T03:10:27.144Z,17.42
2018-06-21T03:11:31.507Z,14.23
2018-06-21T03:12:36.348Z,13.78
2018-06-21T03:13:40.796Z,13.18
2018-06-21T03:14:45.053Z,13.28
2018-06-21T03:15:49.388Z,18.85
2018-06-21T03:16:53.682Z,15.25
2018-06-21T03:17:57.925Z,21.55
2018-06-21T03:19:02.078Z,15.90
2018-06-21T03:20:06.446Z,14.80
2018-06-21T03:21:10.791Z,17.62
2018-06-21T03:22:15.071Z,14.78
2018-06-21T03:23:19.357Z,20.95
2018-06-21T03:24:23.598Z,17.90
2018-06-21T03:25:27.891Z,16.37
2018-06-21T03:26:32.181Z,17.23
2018-06-21T03:27:36.439Z,14.10
2018-06-21T03:28:40.735Z,18.70
2018-06-21T03:29:44.975Z,14.78
2018-06-21T03:30:49.351Z,15.80
2018-06-21T03:31:53.707Z,20.90
2018-06-21T03:32:57.960Z,23.20
2018-06-21T03:34:02.247Z,17.48
2018-06-21T03:35:06.521Z,16.30
2018-06-21T03:36:10.790Z,16.52
2018-06-21T03:37:15.140Z,23.32
2018-06-21T03:38:19.577Z,35.10
2018-06-21T03:39:23.980Z,18.77
2018-06-21T03:40:28.331Z,22.48
2018-06-21T03:41:32.798Z,19.07
2018-06-21T03:42:37.070Z,19.60
2018-06-21T03:43:41.540Z,23.47
2018-06-21T03:44:45.967Z,21.05
2018-06-21T03:45:50.547Z,16.52
2018-06-21T03:46:54.840Z,27.65
2018-06-21T03:47:59.126Z,19.77
2018-06-21T03:49:03.398Z,17.98
2018-06-21T03:50:07.690Z,23.98
2018-06-21T03:51:12.013Z,18.50
2018-06-21T03:52:16.458Z,16.20
2018-06-21T03:53:20.947Z,22.02
2018-06-21T03:54:25.369Z,23.80
2018-06-21T03:55:29.638Z,19.67
2018-06-21T03:56:34.163Z,19.57
2018-06-21T03:57:38.660Z,18.85
2018-06-21T03:58:42.979Z,14.23
2018-06-21T03:59:47.315Z,14.07
2018-06-21T04:00:51.849Z,15.10
2018-06-21T04:01:56.715Z,27.60
2018-06-21T04:03:01.051Z,16.67
2018-06-21T04:04:05.261Z,16.20
2018-06-21T04:05:09.447Z,15.40
2018-06-21T04:06:13.747Z,15.25
2018-06-21T04:07:18.054Z,15.45
2018-06-21T04:08:22.353Z,14.95
2018-06-21T04:09:27.154Z,16.87
2018-06-21T04:10:31.335Z,13.30
2018-06-21T04:11:35.561Z,14.05
2018-06-21T04:12:40.011Z,17.12
2018-06-21T04:13:44.231Z,17.70
2018-06-21T04:14:48.463Z,14.65
2018-06-21T04:15:52.723Z,16.00
2018-06-21T04:16:57.114Z,12.90
2018-06-21T04:18:01.417Z,17.07
2018-06-21T04:19:05.739Z,14.53
2018-06-21T04:20:10.315Z,15.93
2018-06-21T04:21:14.538Z,14.83
2018-06-21T04:22:18.870Z,18.45
2018-06-21T04:23:23.096Z,12.80
2018-06-21T04:24:27.477Z,12.07
2018-06-21T04:25:31.902Z,20.92
2018-06-21T04:26:36.338Z,16.00
2018-06-21T04:27:40.652Z,13.30
2018-06-21T04:28:44.999Z,14.23
2018-06-21T04:29:49.263Z,13.35
2018-06-21T04:30:53.567Z,12.40
2018-06-21T04:31:57.816Z,13.80
2018-06-21T04:33:02.904Z,12.28
2018-06-21T04:34:07.190Z,11.30
2018-06-21T04:35:11.354Z,17.55
2018-06-21T04:36:15.618Z,22.60
2018-06-21T04:37:20.091Z,18.40
2018-06-21T04:38:24.664Z,14.73
2018-06-21T04:39:29.018Z,13.90
2018-06-21T04:40:33.228Z,12.20
2018-06-21T04:41:37.602Z,12.73
2018-06-21T04:42:41.872Z,11.55
2018-06-21T04:43:46.221Z,15.88
2018-06-21T04:44:50.499Z,20.23
2018-06-21T04:45:54.795Z,14.53
2018-06-21T04:46:58.988Z,15.85
2018-06-21T04:48:03.184Z,16.55
2018-06-21T04:49:07.323Z,21.60
2018-06-21T04:50:11.748Z,12.45
2018-06-21T04:51:16.191Z,10.13
2018-06-21T04:52:20.427Z,14.80
2018-06-21T04:53:24.659Z,20.50
2018-06-21T04:54:28.901Z,13.00
2018-06-21T04:55:33.464Z,15.50
2018-06-21T04:56:37.720Z,15.18
2018-06-21T04:57:41.948Z,14.23
2018-06-21T04:58:46.172Z,16.48
2018-06-21T04:59:50.449Z,16.65
2018-06-21T05:00:54.803Z,15.00
2018-06-21T05:01:59.018Z,16.62
2018-06-21T05:03:03.822Z,18.98
2018-06-21T05:04:08.023Z,14.23
2018-06-21T05:05:12.300Z,16.10
2018-06-21T05:06:16.511Z,18.85
2018-06-21T05:07:20.942Z,16.12
2018-06-21T05:08:25.139Z,16.12
2018-06-21T05:09:29.479Z,22.07
2018-06-21T05:10:33.704Z,21.55
2018-06-21T05:11:38.045Z,20.37
2018-06-21T05:12:42.258Z,18.07
2018-06-21T05:13:46.650Z,22.25
2018-06-21T05:14:52.393Z,24.27
2018-06-21T05:15:57.055Z,21.87
2018-06-21T05:17:01.520Z,20.62
2018-06-21T05:18:05.852Z,19.62
2018-06-21T05:19:10.306Z,23.47
2018-06-21T05:20:14.560Z,24.00
2018-06-21T05:21:18.772Z,21.87
2018-06-21T05:22:22.986Z,28.05
2018-06-21T05:23:27.397Z,29.57
2018-06-21T05:24:31.792Z,26.05
2018-06-21T05:25:35.959Z,30.75
2018-06-21T05:26:40.371Z,31.77
2018-06-21T05:27:44.604Z,28.10
2018-06-21T05:28:48.815Z,26.60
2018-06-21T05:29:53.273Z,35.65
2018-06-21T05:30:57.546Z,36.63
2018-06-21T05:32:01.885Z,33.28
2018-06-21T05:33:06.054Z,29.45
2018-06-21T05:34:10.323Z,32.08
2018-06-21T05:35:14.914Z,31.17
2018-06-21T05:36:19.162Z,32.03
2018-06-21T05:37:23.451Z,31.15
2018-06-21T05:38:27.834Z,29.85
2018-06-21T05:39:32.114Z,32.05
2018-06-21T05:40:37.628Z,29.40
2018-06-21T05:41:41.947Z,31.42
2018-06-21T05:42:46.229Z,31.70
2018-06-21T05:43:50.459Z,32.00
2018-06-21T05:44:54.810Z,37.83
2018-06-21T05:45:59.091Z,32.83
2018-06-21T05:47:03.350Z,33.10
2018-06-21T05:48:07.696Z,38.60
2018-06-21T05:49:11.955Z,30.30
2018-06-21T05:50:16.332Z,37.53
2018-06-21T05:51:20.555Z,33.33
2018-06-21T05:52:25.097Z,39.45
2018-06-21T05:53:29.295Z,31.60
2018-06-21T05:54:33.751Z,36.08
2018-06-21T05:55:38.266Z,38.98
2018-06-21T05:56:43.391Z,39.58
2018-06-21T05:57:47.524Z,30.65
2018-06-21T05:58:51.876Z,39.83
2018-06-21T05:59:56.087Z,35.28
2018-06-21T06:01:00.598Z,32.20
2018-06-21T06:02:04.940Z,39.18
2018-06-21T06:03:09.554Z,36.25
2018-06-21T06:04:13.802Z,37.33
2018-06-21T06:05:18.087Z,37.83
2018-06-21T06:06:22.385Z,37.50
2018-06-21T06:07:26.859Z,38.38
2018-06-21T06:08:31.180Z,34.73
2018-06-21T06:09:35.358Z,38.10
2018-06-21T06:10:39.875Z,37.03
2018-06-21T06:11:44.442Z,34.10
2018-06-21T06:12:48.656Z,38.20
2018-06-21T06:13:52.957Z,37.17
2018-06-21T06:14:58.334Z,35.35
2018-06-21T06:16:02.683Z,37.65
2018-06-21T06:17:06.866Z,38.33
2018-06-21T06:18:11.070Z,36.28
2018-06-21T06:19:15.278Z,30.77
2018-06-21T06:20:19.823Z,30.95
2018-06-21T06:21:24.337Z,34.30
2018-06-21T06:22:28.586Z,30.45
2018-06-21T06:23:32.851Z,30.48
2018-06-21T06:24:37.094Z,34.10
2018-06-21T06:25:41.222Z,31.02
2018-06-21T06:26:45.418Z,30.25
2018-06-21T06:27:49.754Z,28.98
2018-06-21T06:28:54.242Z,31.12
2018-06-21T06:29:58.374Z,24.82
2018-06-21T06:31:02.837Z,28.42
2018-06-21T06:32:07.218Z,27.25
2018-06-21T06:33:11.402Z,27.93
2018-06-21T06:34:15.636Z,24.75
2018-06-21T06:35:19.954Z,24.92
2018-06-21T06:36:24.275Z,24.05
2018-06-21T06:37:28.681Z,30.48
2018-06-21T06:38:32.911Z,25.80
2018-06-21T06:39:37.281Z,26.27
2018-06-21T06:40:41.408Z,25.50
2018-06-21T06:41:47.065Z,29.20
2018-06-21T06:42:51.249Z,29.98
2018-06-21T06:43:55.503Z,29.60
2018-06-21T06:44:59.805Z,28.55
2018-06-21T06:46:04.080Z,25.65
2018-06-21T06:47:08.377Z,24.65
2018-06-21T06:48:17.285Z,29.48
2018-06-21T06:49:24.875Z,23.77
2018-06-21T06:50:35.589Z,23.83
2018-06-21T06:51:42.510Z,23.80
2018-06-21T06:52:50.799Z,18.35
2018-06-21T06:53:57.456Z,24.27
2018-06-21T06:55:03.579Z,22.27
2018-06-21T06:56:08.429Z,20.25
2018-06-21T06:57:13.104Z,24.30
2018-06-21T06:58:17.523Z,21.90
2018-06-21T06:59:22.021Z,23.35
2018-06-21T07:00:26.388Z,20.82
2018-06-21T07:01:30.965Z,24.60
2018-06-21T07:02:35.283Z,17.98
2018-06-21T07:03:39.839Z,24.00
2018-06-21T07:04:44.130Z,22.17
2018-06-21T07:05:48.453Z,25.35
2018-06-21T07:06:53.345Z,27.80
2018-06-21T07:07:57.929Z,23.10
2018-06-21T07:09:02.386Z,19.23
2018-06-21T07:10:06.714Z,23.27
2018-06-21T07:11:10.974Z,21.30
2018-06-21T07:12:15.323Z,23.18
2018-06-21T07:13:19.598Z,28.80
2018-06-21T07:14:23.862Z,21.90
2018-06-21T07:15:28.127Z,23.15
2018-06-21T07:16:32.372Z,23.98
2018-06-21T07:17:36.796Z,27.93
2018-06-21T07:18:41.657Z,21.75
2018-06-21T07:19:46.023Z,22.60
2018-06-21T07:20:50.370Z,24.25
2018-06-21T07:21:54.702Z,17.40
2018-06-21T07:22:58.908Z,18.37
2018-06-21T07:24:03.375Z,21.60
2018-06-21T07:25:07.819Z,21.25
2018-06-21T07:26:12.179Z,22.15
2018-06-21T07:27:16.356Z,24.18
2018-06-21T07:28:20.629Z,19.07
2018-06-21T07:29:25.113Z,17.80
2018-06-21T07:30:29.807Z,18.62
2018-06-21T07:31:35.466Z,19.95
2018-06-21T07:32:39.806Z,18.45
2018-06-21T07:33:44.659Z,20.60
2018-06-21T07:34:48.835Z,18.85
2018-06-21T07:35:53.115Z,19.90
2018-06-21T07:36:57.487Z,18.48
2018-06-21T07:38:02.384Z,18.20
2018-06-21T07:39:08.885Z,18.98
2018-06-21T07:40:13.291Z,15.78
2018-06-21T07:41:17.912Z,17.50
2018-06-21T07:42:22.159Z,14.55
2018-06-21T07:43:26.468Z,15.63
2018-06-21T07:44:30.677Z,18.62
2018-06-21T07:45:34.970Z,19.37
2018-06-21T07:46:39.255Z,11.43
2018-06-21T07:47:43.720Z,13.45
2018-06-21T07:48:47.924Z,18.82
2018-06-21T07:49:52.167Z,9.65
2018-06-21T07:50:56.628Z,10.30
2018-06-21T07:52:01.421Z,12.45
2018-06-21T07:53:05.819Z,11.63
2018-06-21T07:54:10.064Z,4.72
2018-06-21T07:55:14.355Z,8.15
2018-06-21T07:56:19.017Z,10.25
2018-06-21T07:57:23.288Z,11.12
2018-06-21T07:58:27.522Z,9.60
2018-06-21T07:59:31.715Z,8.70
2018-06-21T08:00:36.404Z,7.92
2018-06-21T08:01:40.634Z,8.60
2018-06-21T08:02:44.858Z,10.82
2018-06-21T08:03:49.551Z,8.50
2018-06-21T08:04:53.826Z,11.85
2018-06-21T08:05:58.134Z,8.93
2018-06-21T08:07:02.621Z,6.53
2018-06-21T08:08:07.010Z,11.57
2018-06-21T08:09:12.644Z,7.67
2018-06-21T08:10:17.234Z,8.00
2018-06-21T08:11:21.485Z,14.25
2018-06-21T08:12:25.698Z,5.75
2018-06-21T08:13:29.932Z,13.88
2018-06-21T08:14:34.180Z,4.53
2018-06-21T08:15:38.513Z,8.55
2018-06-21T08:16:44.950Z,7.53
2018-06-21T08:17:49.349Z,5.25
2018-06-21T08:18:53.608Z,10.20
2018-06-21T08:19:57.895Z,6.47
2018-06-21T08:21:02.161Z,5.87
2018-06-21T08:22:06.828Z,6.47
2018-06-21T08:23:11.154Z,9.78
2018-06-21T08:24:15.363Z,6.70
2018-06-21T08:25:19.630Z,7.20
2018-06-21T08:26:24.015Z,10.35
2018-06-21T08:27:28.204Z,9.43
2018-06-21T08:28:32.597Z,6.53
2018-06-21T08:29:36.842Z,8.58
2018-06-21T08:30:41.248Z,6.75
2018-06-21T08:31:45.939Z,5.20
2018-06-21T08:32:50.142Z,5.83
2018-06-21T08:33:54.557Z,6.75
2018-06-21T08:34:59.101Z,4.20
2018-06-21T08:36:03.804Z,8.50
2018-06-21T08:37:08.370Z,5.12
2018-06-21T08:38:13.081Z,9.05
2018-06-21T08:39:17.538Z,7.45
2018-06-21T08:40:21.867Z,13.58
2018-06-21T08:41:26.735Z,9.48
2018-06-21T08:42:30.996Z,6.67
2018-06-21T08:43:35.461Z,5.17
2018-06-21T08:44:39.656Z,7.12
2018-06-21T08:45:44.049Z,4.05
2018-06-21T08:46:48.471Z,5.83
2018-06-21T08:47:52.696Z,6.15
2018-06-21T08:48:56.907Z,5.78
2018-06-21T08:50:01.158Z,8.70
2018-06-21T08:51:05.553Z,4.75
2018-06-21T08:52:09.764Z,5.60
2018-06-21T08:53:14.199Z,8.60
2018-06-21T08:54:18.440Z,8.08
2018-06-21T08:55:22.802Z,7.60
2018-06-21T08:56:27.361Z,6.33
2018-06-21T08:57:32.054Z,13.28
2018-06-21T08:58:36.249Z,11.90
2018-06-21T08:59:40.454Z,5.40
2018-06-21T09:00:44.841Z,11.35
2018-06-21T09:01:49.073Z,6.40
2018-06-21T09:02:53.489Z,8.13
2018-06-21T09:03:58.336Z,5.85
2018-06-21T09:05:02.900Z,11.18
2018-06-21T09:06:07.163Z,6.55
2018-06-21T09:07:11.540Z,7.78
2018-06-21T09:08:15.798Z,8.55
2018-06-21T09:09:20.279Z,11.10
2018-06-21T09:10:24.558Z,4.25
2018-06-21T09:11:28.825Z,6.40
2018-06-21T09:12:36.552Z,3.70
2018-06-21T09:13:40.801Z,4.95
2018-06-21T09:14:45.294Z,6.58
2018-06-21T09:15:49.682Z,7.83
2018-06-21T09:16:53.904Z,6.60
2018-06-21T09:17:58.164Z,6.85
2018-06-21T09:19:02.538Z,10.32
2018-06-21T09:20:06.805Z,7.05
2018-06-21T09:21:11.101Z,7.92
2018-06-21T09:22:15.241Z,5.65
2018-06-21T09:23:19.623Z,7.03
2018-06-21T09:24:23.992Z,5.12
2018-06-21T09:25:28.359Z,10.48
2018-06-21T09:26:32.838Z,5.00
2018-06-21T09:27:37.188Z,8.98
2018-06-21T09:28:41.461Z,4.75
2018-06-21T09:29:45.688Z,5.33
2018-06-21T09:30:50.175Z,9.80
2018-06-21T09:31:54.372Z,5.40
2018-06-21T09:32:58.579Z,3.72
2018-06-21T09:34:02.759Z,8.75
2018-06-21T09:35:07.051Z,4.00
2018-06-21T09:36:11.276Z,9.53
2018-06-21T09:37:15.582Z,10.58
2018-06-21T09:38:25.093Z,7.87
2018-06-21T09:39:34.840Z,5.62
2018-06-21T09:40:44.282Z,4.62
2018-06-21T09:41:53.821Z,14.35
2018-06-21T09:43:03.294Z,7.85
2018-06-21T09:44:12.755Z,7.15
2018-06-21T09:45:22.047Z,6.35
2018-06-21T09:46:34.490Z,5.72
2018-06-21T09:47:41.650Z,7.90
2018-06-21T09:48:51.136Z,6.75
2018-06-21T09:49:55.507Z,7.90
2018-06-21T09:51:00.455Z,5.42
2018-06-21T09:52:05.666Z,8.33
2018-06-21T09:53:10.000Z,7.22
2018-06-21T09:54:14.463Z,9.85
2018-06-21T09:55:19.038Z,8.88
2018-06-21T09:56:23.183Z,12.13
2018-06-21T09:57:27.486Z,7.95
2018-06-21T09:58:32.883Z,6.12
2018-06-21T09:59:37.380Z,10.10
2018-06-21T10:00:46.951Z,6.62
2018-06-21T10:01:51.159Z,8.83
2018-06-21T10:02:55.528Z,4.17
2018-06-21T10:03:59.875Z,6.40
2018-06-21T10:05:04.363Z,4.42
2018-06-21T10:06:08.567Z,5.35
2018-06-21T10:07:12.819Z,10.23
2018-06-21T10:08:17.023Z,10.05
2018-06-21T10:09:21.210Z,9.13
2018-06-21T10:10:25.376Z,9.13
2018-06-21T10:11:29.713Z,7.97
2018-06-21T10:12:34.246Z,10.28
2018-06-21T10:13:38.493Z,4.83
2018-06-21T10:14:42.814Z,7.60
2018-06-21T10:15:47.105Z,6.05
2018-06-21T10:16:51.727Z,5.42
2018-06-21T10:17:59.004Z,27.37
2018-06-21T10:19:03.416Z,5.65
2018-06-21T10:20:07.674Z,10.68
2018-06-21T10:21:12.227Z,8.90
2018-06-21T10:22:16.490Z,5.30
2018-06-21T10:23:21.001Z,4.87
2018-06-21T10:24:25.623Z,6.12
2018-06-21T10:25:29.946Z,9.90
2018-06-21T10:26:34.404Z,10.53
2018-06-21T10:27:38.608Z,12.13
2018-06-21T10:28:42.954Z,7.60
2018-06-21T10:29:47.131Z,8.85
2018-06-21T10:30:51.347Z,7.87
2018-06-21T10:31:55.606Z,8.03
2018-06-21T10:32:59.844Z,7.10
2018-06-21T10:34:04.191Z,11.20
2018-06-21T10:35:08.868Z,5.25
2018-06-21T10:36:13.044Z,3.17
2018-06-21T10:37:17.267Z,6.97
2018-06-21T10:38:21.539Z,3.20
2018-06-21T10:39:25.924Z,13.13
2018-06-21T10:40:30.110Z,5.30
2018-06-21T10:41:34.324Z,9.00
2018-06-21T10:42:38.591Z,3.60
2018-06-21T10:43:43.033Z,4.10
2018-06-21T10:44:47.198Z,6.92
2018-06-21T10:45:51.505Z,4.80
2018-06-21T10:46:55.873Z,8.83
2018-06-21T10:48:00.072Z,12.85
2018-06-21T10:49:04.293Z,4.53
2018-06-21T10:50:08.483Z,7.47
2018-06-21T10:51:12.680Z,7.10
2018-06-21T10:52:17.025Z,9.30
2018-06-21T10:53:21.275Z,8.33
2018-06-21T10:54:25.773Z,8.15
2018-06-21T10:55:30.358Z,9.75
2018-06-21T10:56:34.592Z,13.35
2018-06-21T10:57:38.812Z,20.77
2018-06-21T10:58:43.191Z,5.40
2018-06-21T10:59:47.431Z,5.00
2018-06-21T11:00:51.658Z,9.15
2018-06-21T11:01:56.200Z,9.20
2018-06-21T11:03:00.422Z,4.55
2018-06-21T11:04:04.998Z,7.22
2018-06-21T11:05:09.355Z,9.05
2018-06-21T11:06:13.683Z,7.50
2018-06-21T11:07:17.850Z,4.78
2018-06-21T11:08:22.199Z,14.90
2018-06-21T11:09:26.507Z,8.20
2018-06-21T11:10:30.766Z,6.70
2018-06-21T11:11:35.032Z,8.33
2018-06-21T11:12:39.287Z,6.50
2018-06-21T11:13:43.562Z,10.85
2018-06-21T11:14:48.097Z,3.12
2018-06-21T11:15:52.322Z,9.93
2018-06-21T11:16:56.885Z,5.28
2018-06-21T11:18:01.203Z,9.83
2018-06-21T11:19:05.482Z,7.62
2018-06-21T11:20:09.690Z,9.75
2018-06-21T11:21:13.876Z,8.15
2018-06-21T11:22:18.079Z,4.53
2018-06-21T11:23:22.253Z,6.70
2018-06-21T11:24:26.482Z,15.10
2018-06-21T11:25:30.821Z,7.37
2018-06-21T11:26:35.410Z,9.48
2018-06-21T11:27:39.715Z,5.70
2018-06-21T11:28:44.035Z,10.98
2018-06-21T11:29:48.331Z,4.20
2018-06-21T11:30:52.497Z,5.30
2018-06-21T11:31:56.966Z,4.47
2018-06-21T11:33:01.206Z,10.30
2018-06-21T11:34:05.533Z,7.70
2018-06-21T11:35:09.832Z,5.70
2018-06-21T11:36:14.098Z,5.33
2018-06-21T11:37:18.311Z,9.73
2018-06-21T11:38:22.587Z,6.90
2018-06-21T11:39:27.099Z,2.58
2018-06-21T11:40:31.486Z,11.55
2018-06-21T11:41:35.663Z,8.30
2018-06-21T11:42:39.871Z,3.33
2018-06-21T11:43:44.090Z,8.73
2018-06-21T11:44:48.256Z,3.80
2018-06-21T11:45:52.511Z,2.85
2018-06-21T11:46:56.740Z,7.03
2018-06-21T11:48:01.337Z,5.17
2018-06-21T11:49:05.933Z,7.17
2018-06-21T11:50:10.209Z,2.67
2018-06-21T11:51:14.531Z,3.90
2018-06-21T11:52:18.845Z,4.35
2018-06-21T11:53:22.997Z,5.65
2018-06-21T11:54:27.521Z,5.90
2018-06-21T11:55:31.828Z,6.53
2018-06-21T11:56:36.135Z,3.85
2018-06-21T11:57:40.433Z,6.87
2018-06-21T11:58:44.830Z,4.87
2018-06-21T11:59:49.007Z,8.83
2018-06-21T12:00:53.447Z,7.17
2018-06-21T12:01:57.712Z,7.12
2018-06-21T12:03:01.957Z,8.33
2018-06-21T12:04:06.422Z,5.33
2018-06-21T12:05:10.544Z,2.70
2018-06-21T12:06:14.780Z,3.55
2018-06-21T12:07:19.069Z,2.00
2018-06-21T12:08:23.307Z,7.28
2018-06-21T12:09:27.465Z,5.45
2018-06-21T12:10:31.872Z,7.75
2018-06-21T12:11:36.289Z,6.50
2018-06-21T12:12:40.586Z,4.12
2018-06-21T12:13:44.755Z,11.75
2018-06-21T12:14:48.982Z,7.37
2018-06-21T12:15:53.220Z,6.40
2018-06-21T12:16:57.408Z,4.90
2018-06-21T12:18:01.636Z,6.47
2018-06-21T12:19:05.994Z,15.35
2018-06-21T12:20:10.250Z,4.00
2018-06-21T12:21:14.574Z,10.40
2018-06-21T12:22:18.839Z,3.92
2018-06-21T12:23:23.171Z,7.58
2018-06-21T12:24:28.027Z,8.83
2018-06-21T12:25:33.276Z,9.55
2018-06-21T12:26:37.578Z,10.70
2018-06-21T12:27:41.807Z,14.03
2018-06-21T12:28:46.031Z,5.83
2018-06-21T12:29:50.532Z,11.53
2018-06-21T12:30:54.784Z,12.13
2018-06-21T12:31:59.875Z,6.78
2018-06-21T12:33:04.099Z,9.68
2018-06-21T12:34:08.435Z,8.58
2018-06-21T12:35:12.822Z,11.83
2018-06-21T12:36:17.110Z,4.70
2018-06-21T12:37:21.390Z,4.67
2018-06-21T12:38:25.618Z,2.85
2018-06-21T12:39:29.757Z,8.75
2018-06-21T12:40:34.084Z,6.72
2018-06-21T12:41:38.346Z,10.43
2018-06-21T12:42:42.578Z,2.92
2018-06-21T12:43:46.830Z,5.58
2018-06-21T12:44:51.022Z,4.92
2018-06-21T12:45:55.281Z,7.58
2018-06-21T12:46:59.434Z,9.90
2018-06-21T12:48:03.677Z,13.08
2018-06-21T12:49:08.062Z,9.25
2018-06-21T12:50:12.599Z,4.60
2018-06-21T12:51:16.810Z,5.55
2018-06-21T12:52:21.089Z,7.17
2018-06-21T12:53:25.303Z,5.08
2018-06-21T12:54:29.607Z,5.80
2018-06-21T12:55:33.968Z,6.12
2018-06-21T12:56:38.399Z,3.52
2018-06-21T12:57:42.746Z,5.17
2018-06-21T12:58:47.255Z,7.15
2018-06-21T12:59:51.467Z,5.20
2018-06-21T13:00:55.843Z,4.53
2018-06-21T13:02:00.158Z,6.75
2018-06-21T13:03:04.421Z,7.25
2018-06-21T13:04:09.185Z,7.05
2018-06-21T13:05:13.343Z,6.92
2018-06-21T13:06:17.671Z,7.47
2018-06-21T13:07:21.919Z,8.98
2018-06-21T13:08:37.545Z,3.58
2018-06-21T13:09:52.969Z,4.10
2018-06-21T13:11:08.333Z,6.65
2018-06-21T13:12:26.763Z,6.45
2018-06-21T13:13:31.115Z,6.33
2018-06-21T13:14:35.307Z,9.03
2018-06-21T13:15:40.129Z,4.53
2018-06-21T13:16:44.759Z,7.47
2018-06-21T13:17:49.253Z,6.28
2018-06-21T13:18:53.729Z,10.03
2018-06-21T13:19:58.798Z,5.25
2018-06-21T13:21:03.252Z,7.70
2018-06-21T13:22:07.554Z,7.50
2018-06-21T13:23:12.183Z,8.18
2018-06-21T13:24:16.612Z,9.65
2018-06-21T13:25:21.019Z,4.75
2018-06-21T13:26:25.574Z,3.90
2018-06-21T13:27:29.788Z,3.30
2018-06-21T13:28:34.043Z,11.18
2018-06-21T13:29:39.268Z,4.05
2018-06-21T13:30:43.574Z,9.03
2018-06-21T13:31:47.787Z,6.20
2018-06-21T13:32:52.078Z,7.22
2018-06-21T13:33:56.272Z,9.40
2018-06-21T13:35:00.515Z,13.40
2018-06-21T13:36:04.813Z,10.28
2018-06-21T13:37:09.536Z,10.38
2018-06-21T13:38:13.734Z,14.58
2018-06-21T13:39:18.200Z,6.50
2018-06-21T13:40:22.423Z,10.50
2018-06-21T13:41:26.753Z,6.67
2018-06-21T13:42:31.097Z,5.60
2018-06-21T13:43:35.336Z,5.72
2018-06-21T13:44:39.559Z,4.00
2018-06-21T13:45:43.921Z,7.20
2018-06-21T13:46:48.207Z,6.70
2018-06-21T13:47:52.731Z,8.38
2018-06-21T13:48:56.967Z,7.12
2018-06-21T13:50:01.108Z,9.25
2018-06-21T13:51:05.763Z,7.65
2018-06-21T13:52:10.058Z,8.40
2018-06-21T13:53:14.382Z,7.85
2018-06-21T13:54:18.819Z,6.90
2018-06-21T13:55:22.974Z,7.30
2018-06-21T13:56:27.335Z,7.90
2018-06-21T13:57:31.505Z,10.58
2018-06-21T13:58:35.847Z,7.80
2018-06-21T13:59:40.109Z,10.23
2018-06-21T14:00:44.437Z,9.98
2018-06-21T14:01:49.395Z,6.62
2018-06-21T14:02:54.117Z,6.67